createdAt,value
2022-09-17T00:00:59.083Z,9.90
2022-09-17T00:05:16.310Z,10.00
2022-09-17T00:09:33.765Z,10.00
2022-09-17T00:13:52.188Z,10.00
2022-09-17T00:18:10.036Z,10.10
2022-09-17T00:22:27.207Z,10.00
2022-09-17T00:26:44.756Z,10.10
2022-09-17T00:31:06.405Z,10.20
2022-09-17T00:35:27.674Z,10.20
2022-09-17T00:39:44.997Z,10.20
2022-09-17T00:44:43.032Z,10.20
2022-09-17T00:49:06.545Z,10.20
2022-09-17T00:53:23.895Z,10.20
2022-09-17T00:57:42.135Z,10.20
2022-09-17T01:01:59.365Z,10.20
2022-09-17T01:06:37.635Z,10.30
2022-09-17T01:11:31.298Z,10.30
2022-09-17T01:16:10.600Z,10.30
2022-09-17T01:20:30.678Z,10.30
2022-09-17T01:25:09.347Z,10.40
2022-09-17T01:29:50.642Z,10.50
2022-09-17T01:34:24.342Z,10.60
2022-09-17T01:39:02.911Z,10.60
2022-09-17T01:43:27.802Z,10.70
2022-09-17T01:47:55.771Z,10.70
2022-09-17T01:52:15.610Z,10.70
2022-09-17T01:57:03.432Z,10.70
2022-09-17T02:01:24.849Z,10.70
2022-09-17T02:05:48.552Z,10.70
2022-09-17T02:10:13.502Z,10.70
2022-09-17T02:14:37.983Z,10.60
2022-09-17T02:19:06.464Z,10.60
2022-09-17T02:23:31.472Z,10.60
2022-09-17T02:27:55.631Z,10.50
2022-09-17T02:32:13.352Z,10.50
2022-09-17T02:36:32.175Z,10.50
2022-09-17T02:40:55.200Z,10.40
2022-09-17T02:45:40.047Z,10.40
2022-09-17T02:50:27.907Z,10.30
2022-09-17T02:55:05.311Z,10.30
2022-09-17T02:59:27.755Z,10.10
2022-09-17T03:03:47.159Z,9.90
2022-09-17T03:08:07.526Z,9.70
2022-09-17T03:12:24.809Z,9.60
2022-09-17T03:16:41.903Z,9.60
2022-09-17T03:20:59.348Z,9.50
2022-09-17T03:25:16.550Z,9.50
2022-09-17T03:29:33.683Z,9.60
2022-09-17T03:33:50.876Z,9.50
2022-09-17T03:38:08.155Z,9.50
2022-09-17T03:42:25.218Z,9.50
2022-09-17T03:46:42.490Z,9.50
2022-09-17T03:50:59.775Z,9.50
2022-09-17T03:55:17.314Z,9.40
2022-09-17T03:59:34.466Z,9.50
2022-09-17T04:03:51.628Z,9.50
2022-09-17T04:08:08.735Z,9.50
2022-09-17T04:12:25.867Z,9.40
2022-09-17T04:16:43.051Z,9.40
2022-09-17T04:21:00.240Z,9.40
2022-09-17T04:25:17.531Z,9.40
2022-09-17T04:29:34.799Z,9.40
2022-09-17T04:33:51.932Z,9.40
2022-09-17T04:38:09.595Z,9.50
2022-09-17T04:42:26.791Z,9.50
2022-09-17T04:46:43.924Z,9.50
2022-09-17T04:51:01.200Z,9.40
2022-09-17T04:55:18.486Z,9.40
2022-09-17T04:59:35.666Z,9.40
2022-09-17T05:03:53.006Z,9.30
2022-09-17T05:08:10.250Z,9.30
2022-09-17T05:12:31.231Z,9.30
2022-09-17T05:16:51.079Z,9.30
2022-09-17T05:21:08.242Z,9.30
2022-09-17T05:25:25.408Z,9.20
2022-09-17T05:29:42.617Z,9.20
2022-09-17T05:33:59.926Z,9.20
2022-09-17T05:38:18.797Z,9.20
2022-09-17T05:42:36.217Z,9.20
2022-09-17T05:46:54.330Z,9.20
2022-09-17T05:51:11.795Z,9.20
2022-09-17T05:55:28.983Z,9.30
2022-09-17T05:59:46.163Z,9.20
2022-09-17T06:04:04.555Z,9.30
2022-09-17T06:08:22.749Z,9.40
2022-09-17T06:12:39.993Z,9.50
2022-09-17T06:16:57.429Z,9.50
2022-09-17T06:21:14.640Z,9.60
2022-09-17T06:25:31.840Z,9.70
2022-09-17T06:29:48.961Z,9.80
2022-09-17T06:34:06.125Z,9.90
2022-09-17T06:38:23.295Z,10.00
2022-09-17T06:42:40.403Z,10.10
2022-09-17T06:46:58.102Z,10.10
2022-09-17T06:51:15.278Z,10.20
2022-09-17T06:55:32.453Z,10.30
2022-09-17T06:59:50.170Z,10.40
2022-09-17T07:04:07.299Z,10.40
2022-09-17T07:08:25.966Z,10.50
2022-09-17T07:12:47.853Z,10.70
2022-09-17T07:17:07.264Z,10.80
2022-09-17T07:21:24.469Z,10.90
2022-09-17T07:25:41.609Z,11.10
2022-09-17T07:29:58.981Z,11.00
2022-09-17T07:34:16.087Z,11.10
2022-09-17T07:38:34.155Z,11.20
2022-09-17T07:42:51.397Z,11.10
2022-09-17T07:47:09.954Z,11.10
2022-09-17T07:51:28.569Z,11.00
2022-09-17T07:55:55.998Z,10.90
2022-09-17T08:00:14.427Z,11.10
2022-09-17T08:04:31.611Z,11.30
2022-09-17T08:08:49.779Z,11.70
2022-09-17T08:13:07.023Z,11.60
2022-09-17T08:17:24.279Z,11.60
2022-09-17T08:21:41.460Z,11.60
2022-09-17T08:26:00.314Z,11.70
2022-09-17T08:30:17.381Z,11.70
2022-09-17T08:34:34.527Z,11.60
2022-09-17T08:38:55.837Z,11.80
2022-09-17T08:43:17.603Z,12.50
2022-09-17T08:47:38.333Z,12.40
2022-09-17T08:52:46.177Z,13.20
2022-09-17T08:57:27.016Z,14.10
2022-09-17T09:02:12.939Z,13.40
2022-09-17T09:06:36.317Z,12.30
2022-09-17T09:10:56.598Z,11.60
2022-09-17T09:15:41.733Z,11.80
2022-09-17T09:19:58.864Z,12.50
2022-09-17T09:24:23.024Z,12.50
2022-09-17T09:28:52.544Z,11.60
2022-09-17T09:33:27.952Z,11.10
2022-09-17T09:37:54.673Z,10.70
2022-09-17T09:42:36.497Z,10.90
2022-09-17T09:47:06.995Z,10.90
2022-09-17T09:51:45.466Z,11.10
2022-09-17T09:56:11.219Z,11.80
2022-09-17T10:00:31.254Z,13.90
2022-09-17T10:04:52.816Z,12.70
2022-09-17T10:09:13.486Z,11.60
2022-09-17T10:13:33.156Z,11.30
2022-09-17T10:18:10.585Z,11.40
2022-09-17T10:22:32.437Z,11.50
2022-09-17T10:26:50.822Z,12.70
2022-09-17T10:31:10.744Z,13.40
2022-09-17T10:35:28.969Z,13.40
2022-09-17T10:39:48.667Z,12.90
2022-09-17T10:44:18.074Z,12.80
2022-09-17T10:48:38.509Z,12.50
2022-09-17T10:53:00.419Z,12.50
2022-09-17T10:57:42.632Z,12.60
2022-09-17T11:02:30.509Z,12.80
2022-09-17T11:06:56.317Z,12.90
2022-09-17T11:11:19.286Z,12.60
2022-09-17T11:16:33.336Z,12.60
2022-09-17T11:21:18.411Z,13.80
2022-09-17T11:25:46.791Z,15.00
2022-09-17T11:30:18.599Z,14.70
2022-09-17T11:34:58.331Z,15.30
2022-09-17T11:39:47.663Z,14.90
2022-09-17T11:44:37.143Z,15.00
2022-09-17T11:49:30.077Z,16.60
2022-09-17T11:53:57.798Z,15.50
2022-09-17T11:58:29.015Z,15.00
2022-09-17T12:02:57.541Z,14.70
2022-09-17T12:07:34.874Z,14.70
2022-09-17T12:11:52.083Z,15.90
2022-09-17T12:16:36.453Z,16.80
2022-09-17T12:20:57.189Z,16.70
2022-09-17T12:25:14.878Z,13.20
2022-09-17T12:30:00.813Z,12.10
2022-09-17T12:34:35.898Z,11.90
2022-09-17T12:39:08.716Z,13.60
2022-09-17T12:43:59.926Z,13.70
2022-09-17T12:48:28.776Z,13.50
2022-09-17T12:53:17.063Z,16.20
2022-09-17T12:57:37.107Z,13.80
2022-09-17T13:02:18.276Z,12.70
2022-09-17T13:06:58.515Z,13.10
2022-09-17T13:11:25.308Z,15.00
2022-09-17T13:15:57.594Z,16.00
2022-09-17T13:20:30.383Z,16.90
2022-09-17T13:25:01.290Z,16.50
2022-09-17T13:29:43.281Z,15.20
2022-09-17T13:34:02.073Z,14.80
2022-09-17T13:38:23.670Z,14.30
2022-09-17T13:42:47.987Z,15.10
2022-09-17T13:47:21.644Z,15.10
2022-09-17T13:51:38.801Z,15.40
2022-09-17T13:56:04.984Z,15.20
2022-09-17T14:00:54.965Z,14.40
2022-09-17T14:05:32.571Z,13.30
2022-09-17T14:09:54.798Z,12.10
2022-09-17T14:14:11.916Z,10.70
2022-09-17T14:18:29.037Z,10.60
2022-09-17T14:22:56.152Z,11.50
2022-09-17T14:27:23.649Z,11.70
2022-09-17T14:31:41.593Z,11.70
2022-09-17T14:36:16.497Z,11.90
2022-09-17T14:40:34.469Z,12.10
2022-09-17T14:45:00.807Z,12.30
2022-09-17T14:49:26.944Z,12.40
2022-09-17T14:53:45.557Z,12.70
2022-09-17T14:58:04.742Z,12.40
2022-09-17T15:02:46.223Z,12.40
2022-09-17T15:07:12.247Z,12.40
2022-09-17T15:11:31.456Z,12.80
2022-09-17T15:15:55.632Z,13.20
2022-09-17T15:20:20.769Z,13.20
2022-09-17T15:24:56.247Z,13.10
2022-09-17T15:29:14.856Z,13.20
2022-09-17T15:33:33.296Z,13.30
2022-09-17T15:42:31.268Z,13.10
2022-09-17T15:46:48.851Z,12.90
2022-09-17T15:51:23.567Z,12.90
2022-09-17T15:55:45.892Z,12.70
2022-09-17T16:00:12.762Z,12.50
2022-09-17T16:04:33.868Z,12.50
2022-09-17T16:08:59.095Z,12.40
2022-09-17T16:13:16.321Z,11.40
2022-09-17T16:17:44.786Z,10.80
2022-09-17T16:22:01.959Z,10.40
2022-09-17T16:26:21.527Z,10.30
2022-09-17T16:30:42.804Z,10.20
2022-09-17T16:35:00.030Z,10.30
2022-09-17T16:39:17.173Z,10.30
2022-09-17T16:43:35.453Z,9.70
2022-09-17T16:47:52.823Z,9.00
2022-09-17T16:52:10.031Z,8.90
2022-09-17T16:56:27.247Z,8.80
2022-09-17T17:00:44.906Z,8.50
2022-09-17T17:05:02.101Z,8.50
2022-09-17T17:09:19.193Z,8.40
2022-09-17T17:13:36.307Z,8.30
2022-09-17T17:17:53.537Z,8.30
2022-09-17T17:22:10.736Z,8.40
2022-09-17T17:26:27.863Z,8.60
2022-09-17T17:30:47.769Z,8.80
2022-09-17T17:35:05.931Z,8.80
2022-09-17T17:39:23.062Z,8.80
2022-09-17T17:43:40.877Z,8.80
2022-09-17T17:47:58.011Z,8.90
2022-09-17T17:52:15.161Z,9.00
2022-09-17T17:56:32.318Z,9.20
2022-09-17T18:00:49.803Z,9.30
2022-09-17T18:05:07.458Z,9.30
2022-09-17T18:09:24.830Z,9.40
2022-09-17T18:13:41.968Z,9.40
2022-09-17T18:17:59.206Z,9.30
2022-09-17T18:22:16.470Z,9.30
2022-09-17T18:26:34.330Z,9.30
2022-09-17T18:30:51.669Z,9.20
2022-09-17T18:35:08.904Z,9.30
2022-09-17T18:39:57.528Z,9.40
2022-09-17T18:44:03.780Z,9.50
2022-09-17T18:48:21.229Z,9.50
2022-09-17T18:52:38.458Z,9.60
2022-09-17T18:56:55.625Z,9.70
2022-09-17T19:01:13.021Z,9.70
2022-09-17T19:05:30.276Z,9.70
2022-09-17T19:09:47.369Z,9.50
2022-09-17T19:14:04.541Z,9.40
2022-09-17T19:18:21.706Z,9.20
2022-09-17T19:22:38.988Z,9.00
2022-09-17T19:26:56.167Z,9.00
2022-09-17T19:31:15.781Z,9.10
2022-09-17T19:35:32.948Z,9.20
2022-09-17T19:39:50.243Z,9.30
2022-09-17T19:44:08.562Z,9.40
2022-09-17T19:48:25.632Z,9.40
2022-09-17T19:52:42.915Z,9.40
2022-09-17T19:57:00.102Z,9.50
2022-09-17T20:01:17.796Z,9.40
2022-09-17T20:05:35.993Z,9.30
2022-09-17T20:09:53.139Z,9.20
2022-09-17T20:14:12.050Z,9.10
2022-09-17T20:18:29.138Z,9.10
2022-09-17T20:22:48.117Z,9.00
2022-09-17T20:27:05.363Z,9.00
2022-09-17T20:31:25.058Z,8.90
2022-09-17T20:35:42.228Z,9.00
2022-09-17T20:39:59.498Z,9.00
2022-09-17T20:44:17.816Z,9.00
2022-09-17T20:48:36.055Z,9.10
2022-09-17T20:52:53.182Z,9.10
2022-09-17T20:57:10.415Z,9.10
2022-09-17T21:01:35.534Z,9.10
2022-09-17T21:05:52.801Z,9.00
2022-09-17T21:10:10.279Z,9.10
2022-09-17T21:14:27.542Z,9.30
2022-09-17T21:18:45.162Z,9.30
2022-09-17T21:23:02.318Z,9.30
2022-09-17T21:27:19.460Z,9.40
2022-09-17T21:31:37.385Z,9.30
2022-09-17T21:35:54.590Z,9.10
2022-09-17T21:40:11.790Z,9.00
2022-09-17T21:44:29.082Z,8.90
2022-09-17T21:48:51.013Z,8.80
2022-09-17T21:53:08.126Z,8.80
2022-09-17T21:57:25.300Z,8.70
2022-09-17T22:01:48.788Z,8.70
2022-09-17T22:06:12.165Z,8.70
2022-09-17T22:10:29.286Z,8.60
2022-09-17T22:14:46.389Z,8.60
2022-09-17T22:19:04.748Z,8.60
2022-09-17T22:23:23.078Z,8.60
2022-09-17T22:27:40.256Z,8.50
2022-09-17T22:31:57.464Z,8.40
2022-09-17T22:36:17.162Z,8.40
2022-09-17T22:40:36.357Z,8.30
2022-09-17T22:44:53.515Z,8.30
2022-09-17T22:49:11.885Z,8.30
2022-09-17T22:53:28.988Z,8.20
2022-09-17T22:57:46.055Z,8.20
2022-09-17T23:02:03.309Z,8.30
2022-09-17T23:06:22.648Z,8.30
2022-09-17T23:10:40.593Z,8.30
2022-09-17T23:14:57.740Z,8.30
2022-09-17T23:19:16.515Z,8.30
2022-09-17T23:23:34.376Z,8.30
2022-09-17T23:27:51.514Z,8.30
2022-09-17T23:32:08.782Z,8.30
2022-09-17T23:36:36.867Z,8.30
2022-09-17T23:40:54.016Z,8.30
2022-09-17T23:45:11.136Z,8.30
2022-09-17T23:49:28.302Z,8.30
2022-09-17T23:53:45.822Z,8.30
2022-09-17T23:58:03.780Z,8.30
